Hauptseite
METAR-TAF:

METAR-TAF

Flughäfen :

Gaithersburg, Maryland, Vereinigte Staaten

Breite: 39-10-06N, Länge: 077-09-58W, Höhe: 164 m

Beobachtung

Neuester Wetterbericht von vor 49 Minuten, um 07:56 UTC
Windstille
Temperatur 12°C
Luftfeuchtigkeit 76%
Luftdruck 999 hPa
Sichtweite: 16.1 km
Himmel klar

METAR: KGAI 090756Z AUTO 00000KT 10SM CLR 12/08 A2951 RMK AO2 SLP005 T01220078

Zeit: 04:45 (08:45 UTC)


TAF: fehlend

Wetterbeobachtungen und Prognosen von mehr als 4000 Flughäfen (METAR und TAF Bericht).

Die verfügbaren Stationen werden durch gelbe und rote Markierungen auf der Karte dargestellt.

Führen Sie die Maus auf sie, um den Namen der Station zu sehen.

Darauf klicken, um die Beobachtung von Wetterbeobachtungen und Prognosen zu sehen.

Um die Karte zu ändern : klicken Sie auf den grünen Tasten mit einem schwarzen Kreuz Zum Vergrößern, auf den grünen Button mit einem Gedankenstrich zu verkleinern, oder auf die grünen Pfeile für benachbarte Karten.


METAR-TAF: